createdAt,value
2024-04-18T00:00:39.931Z,6.08
2024-04-18T00:03:11.543Z,6.00
2024-04-18T00:05:42.216Z,6.11
2024-04-18T00:08:10.513Z,5.97
2024-04-18T00:10:44.552Z,5.94
2024-04-18T00:13:12.641Z,5.87
2024-04-18T00:15:40.980Z,5.92
2024-04-18T00:18:11.517Z,5.85
2024-04-18T00:20:39.172Z,5.79
2024-04-18T00:23:07.173Z,5.77
2024-04-18T00:25:36.654Z,5.76
2024-04-18T00:28:08.627Z,5.78
2024-04-18T00:30:36.444Z,5.80
2024-04-18T00:33:05.132Z,5.78
2024-04-18T00:35:33.145Z,5.76
2024-04-18T00:38:02.857Z,5.72
2024-04-18T00:40:32.039Z,5.66
2024-04-18T00:43:00.759Z,5.59
2024-04-18T00:45:31.844Z,5.63
2024-04-18T00:48:00.442Z,5.64
2024-04-18T00:50:29.482Z,5.59
2024-04-18T00:52:58.262Z,5.54
2024-04-18T00:55:28.281Z,5.44
2024-04-18T00:57:57.591Z,5.49
2024-04-18T01:00:26.045Z,5.32
2024-04-18T01:03:00.582Z,5.35
2024-04-18T01:05:28.820Z,5.41
2024-04-18T01:07:56.654Z,5.46
2024-04-18T01:10:24.055Z,5.36
2024-04-18T01:13:00.142Z,5.34
2024-04-18T01:15:27.929Z,5.35
2024-04-18T01:17:56.391Z,5.21
2024-04-18T01:20:27.388Z,5.28
2024-04-18T01:22:57.658Z,5.19
2024-04-18T01:25:28.458Z,5.28
2024-04-18T01:27:59.221Z,5.30
2024-04-18T01:30:27.934Z,5.22
2024-04-18T01:32:59.635Z,5.19
2024-04-18T01:35:29.864Z,5.05
2024-04-18T01:37:57.458Z,5.29
2024-04-18T01:40:30.731Z,5.28
2024-04-18T01:43:04.957Z,5.17
2024-04-18T01:45:33.108Z,5.18
2024-04-18T01:48:02.016Z,5.13
2024-04-18T01:50:31.300Z,5.05
2024-04-18T01:53:03.929Z,5.07
2024-04-18T01:55:32.189Z,5.05
2024-04-18T01:58:04.774Z,5.07
2024-04-18T02:00:32.910Z,5.05
2024-04-18T02:03:02.395Z,5.04
2024-04-18T02:05:31.726Z,5.06
2024-04-18T02:08:00.906Z,5.13
2024-04-18T02:10:28.823Z,5.01
2024-04-18T02:12:58.333Z,5.07
2024-04-18T02:15:28.998Z,5.01
2024-04-18T02:18:08.237Z,5.10
2024-04-18T02:20:35.957Z,5.17
2024-04-18T02:23:04.044Z,5.19
2024-04-18T02:25:32.686Z,5.08
2024-04-18T02:28:03.642Z,5.18
2024-04-18T02:30:37.971Z,5.16
2024-04-18T02:33:07.212Z,5.11
2024-04-18T02:35:35.473Z,5.20
2024-04-18T02:38:06.355Z,5.22
2024-04-18T02:40:37.654Z,5.27
2024-04-18T02:43:08.586Z,5.27
2024-04-18T02:45:45.065Z,5.29
2024-04-18T02:48:16.314Z,5.21
2024-04-18T02:50:47.712Z,5.26
2024-04-18T02:53:18.526Z,5.26
2024-04-18T02:55:49.151Z,5.16
2024-04-18T02:58:17.128Z,5.19
2024-04-18T03:00:48.356Z,5.21
2024-04-18T03:03:16.359Z,5.18
2024-04-18T03:05:44.261Z,5.23
2024-04-18T03:08:12.500Z,5.06
2024-04-18T03:10:48.724Z,5.15
2024-04-18T03:13:16.876Z,4.92
2024-04-18T03:15:51.021Z,5.00
2024-04-18T03:18:18.917Z,4.81
2024-04-18T03:20:53.241Z,4.83
2024-04-18T03:23:21.182Z,4.94
2024-04-18T03:25:51.246Z,5.01
2024-04-18T03:28:19.281Z,5.04
2024-04-18T03:30:49.737Z,4.94
2024-04-18T03:33:17.939Z,4.96
2024-04-18T03:35:46.665Z,4.88
2024-04-18T03:38:17.606Z,4.86
2024-04-18T03:40:54.995Z,5.00
2024-04-18T03:43:22.823Z,4.95
2024-04-18T03:45:59.700Z,4.91
2024-04-18T03:48:28.203Z,4.96
2024-04-18T03:50:56.972Z,4.94
2024-04-18T03:53:27.961Z,4.96
2024-04-18T03:55:56.427Z,4.92
2024-04-18T03:58:27.673Z,4.86
2024-04-18T04:00:58.249Z,4.79
2024-04-18T04:03:27.651Z,4.90
2024-04-18T04:05:55.846Z,4.95
2024-04-18T04:08:27.603Z,5.09
2024-04-18T04:10:56.024Z,5.28
2024-04-18T04:13:31.030Z,5.35
2024-04-18T04:16:01.581Z,5.41
2024-04-18T04:18:29.618Z,5.47
2024-04-18T04:20:57.898Z,5.46
2024-04-18T04:23:26.291Z,5.64
2024-04-18T04:25:55.015Z,5.71
2024-04-18T04:28:27.672Z,5.72
2024-04-18T04:30:55.728Z,5.82
2024-04-18T04:33:29.560Z,5.97
2024-04-18T04:35:58.171Z,5.93
2024-04-18T04:38:26.626Z,5.95
2024-04-18T04:40:54.287Z,5.98
2024-04-18T04:43:22.628Z,5.88
2024-04-18T04:45:54.396Z,5.90
2024-04-18T04:48:23.015Z,5.87
2024-04-18T04:51:11.635Z,5.77
2024-04-18T04:53:39.954Z,5.79
2024-04-18T04:56:14.865Z,5.88
2024-04-18T04:58:45.749Z,5.85
2024-04-18T05:01:14.230Z,5.76
2024-04-18T05:03:42.329Z,5.78
2024-04-18T05:06:13.201Z,5.78
2024-04-18T05:08:44.269Z,5.84
2024-04-18T05:11:12.729Z,5.82
2024-04-18T05:13:44.035Z,5.77
2024-04-18T05:16:17.237Z,5.84
2024-04-18T05:18:47.683Z,5.81
2024-04-18T05:21:20.741Z,5.85
2024-04-18T05:23:51.814Z,5.85
2024-04-18T05:26:19.918Z,5.86
2024-04-18T05:29:06.811Z,5.90
2024-04-18T05:31:39.690Z,5.98
2024-04-18T05:34:09.395Z,5.90
2024-04-18T05:36:41.103Z,6.05
2024-04-18T05:39:15.431Z,5.98
2024-04-18T05:41:43.088Z,6.13
2024-04-18T05:44:11.260Z,6.13
2024-04-18T05:46:47.549Z,6.16
2024-04-18T05:49:17.710Z,6.05
2024-04-18T05:51:48.720Z,6.08
2024-04-18T05:54:16.723Z,6.23
2024-04-18T05:56:44.928Z,6.28
2024-04-18T05:59:13.180Z,6.34
2024-04-18T06:01:42.916Z,6.41
2024-04-18T06:04:10.688Z,6.52
2024-04-18T06:06:41.842Z,6.67
2024-04-18T06:09:12.781Z,6.58
2024-04-18T06:11:44.842Z,6.72
2024-04-18T06:14:20.199Z,6.82
2024-04-18T06:16:48.309Z,6.92
2024-04-18T06:19:16.497Z,6.94
2024-04-18T06:21:44.511Z,7.15
2024-04-18T06:24:15.213Z,7.08
2024-04-18T06:26:46.366Z,7.20
2024-04-18T06:29:18.308Z,7.21
2024-04-18T06:31:46.652Z,7.24
2024-04-18T06:34:17.222Z,7.33
2024-04-18T06:36:47.449Z,7.41
2024-04-18T06:39:20.779Z,7.41
2024-04-18T06:41:48.332Z,7.51
2024-04-18T06:44:16.508Z,7.71
2024-04-18T06:46:52.777Z,7.79
2024-04-18T06:49:27.984Z,7.89
2024-04-18T06:52:01.476Z,8.00
2024-04-18T06:54:32.459Z,8.32
2024-04-18T06:57:00.817Z,8.39
2024-04-18T06:59:28.486Z,8.30
2024-04-18T07:01:57.720Z,8.22
2024-04-18T07:04:26.237Z,8.11
2024-04-18T07:06:54.665Z,8.09
2024-04-18T07:09:22.970Z,8.25
2024-04-18T07:11:53.445Z,8.37
2024-04-18T07:14:22.056Z,8.35
2024-04-18T07:16:50.294Z,8.50
2024-04-18T07:19:18.688Z,8.44
2024-04-18T07:21:47.692Z,8.39
2024-04-18T07:24:15.875Z,8.58
2024-04-18T07:26:44.374Z,8.58
2024-04-18T07:29:15.416Z,8.70
2024-04-18T07:31:45.601Z,8.76
2024-04-18T07:34:14.195Z,8.77
2024-04-18T07:36:41.958Z,8.79
2024-04-18T07:39:11.235Z,8.84
2024-04-18T07:41:39.751Z,8.89
2024-04-18T07:44:13.581Z,8.69
2024-04-18T07:46:52.528Z,8.86
2024-04-18T07:49:28.670Z,8.88
2024-04-18T07:52:06.458Z,8.93
2024-04-18T07:54:49.065Z,9.06
2024-04-18T07:57:25.271Z,9.07
2024-04-18T07:59:56.926Z,9.11
2024-04-18T08:02:32.064Z,9.09
2024-04-18T08:05:11.468Z,9.22
2024-04-18T08:08:01.267Z,9.33
2024-04-18T08:10:45.991Z,9.43
2024-04-18T08:13:30.336Z,9.48
2024-04-18T08:16:05.030Z,9.61
2024-04-18T08:18:35.892Z,9.69
2024-04-18T08:21:10.723Z,9.72
2024-04-18T08:23:40.672Z,9.98
2024-04-18T08:26:10.449Z,9.99
2024-04-18T08:28:38.306Z,10.05
2024-04-18T08:31:06.591Z,10.22
2024-04-18T08:33:37.397Z,10.32
2024-04-18T08:36:06.444Z,10.33
2024-04-18T08:38:34.717Z,10.47
2024-04-18T08:41:12.036Z,10.02
2024-04-18T08:43:43.585Z,10.40
2024-04-18T08:46:12.983Z,10.38
2024-04-18T08:48:44.284Z,10.81
2024-04-18T08:51:15.548Z,11.21
2024-04-18T08:53:43.268Z,10.90
2024-04-18T08:56:17.823Z,10.86
2024-04-18T08:58:46.065Z,10.52
2024-04-18T09:01:14.260Z,10.22
2024-04-18T09:03:47.671Z,10.01
2024-04-18T09:06:18.536Z,10.16
2024-04-18T09:08:46.407Z,10.42
2024-04-18T09:11:15.892Z,10.34
2024-04-18T09:13:43.787Z,10.56
2024-04-18T09:16:11.727Z,10.88
2024-04-18T09:18:40.294Z,11.15
2024-04-18T09:21:13.377Z,10.84
2024-04-18T09:23:44.431Z,10.54
2024-04-18T09:26:15.175Z,10.30
2024-04-18T09:28:48.503Z,10.16
2024-04-18T09:31:30.382Z,10.26
2024-04-18T09:34:04.671Z,10.08
2024-04-18T09:36:41.617Z,10.05
2024-04-18T09:39:18.482Z,10.11
2024-04-18T09:41:54.932Z,10.11
2024-04-18T09:44:26.022Z,10.50
2024-04-18T09:46:56.350Z,11.01
2024-04-18T09:49:24.888Z,10.97
2024-04-18T09:51:58.801Z,10.72
2024-04-18T09:54:27.229Z,10.53
2024-04-18T09:56:59.901Z,10.78
2024-04-18T09:59:29.444Z,11.16
2024-04-18T10:01:59.318Z,11.43
2024-04-18T10:04:28.071Z,11.62
2024-04-18T10:07:00.087Z,11.61
2024-04-18T10:09:30.129Z,11.99
2024-04-18T10:11:59.275Z,11.57
2024-04-18T10:14:31.692Z,11.63
2024-04-18T10:16:59.364Z,11.46
2024-04-18T10:19:32.731Z,11.01
2024-04-18T10:22:17.202Z,11.25
2024-04-18T10:24:52.370Z,11.23
2024-04-18T10:27:24.206Z,11.23
2024-04-18T10:30:02.637Z,10.90
2024-04-18T10:32:32.876Z,11.23
2024-04-18T10:35:01.563Z,11.76
2024-04-18T10:37:32.298Z,11.48
2024-04-18T10:40:00.768Z,11.90
2024-04-18T10:42:28.789Z,11.74
2024-04-18T10:44:57.814Z,11.29
2024-04-18T10:47:25.741Z,11.08
2024-04-18T10:49:54.198Z,11.04
2024-04-18T10:52:23.315Z,11.06
2024-04-18T10:55:00.374Z,11.36
2024-04-18T10:57:28.478Z,11.63
2024-04-18T11:00:03.305Z,11.61
2024-04-18T11:02:33.779Z,11.27
2024-04-18T11:05:07.084Z,11.41
2024-04-18T11:07:40.720Z,11.13
2024-04-18T11:10:14.731Z,11.15
2024-04-18T11:12:45.722Z,10.70
2024-04-18T11:15:17.798Z,10.76
2024-04-18T11:17:49.250Z,10.70
2024-04-18T11:20:19.763Z,10.64
2024-04-18T11:22:57.215Z,10.90
2024-04-18T11:25:34.944Z,11.00
2024-04-18T11:28:11.659Z,10.96
2024-04-18T11:30:44.154Z,11.01
2024-04-18T11:33:25.656Z,11.15
2024-04-18T11:35:56.867Z,11.62
2024-04-18T11:38:30.504Z,11.71
2024-04-18T11:41:02.655Z,12.01
2024-04-18T11:43:33.334Z,12.10
2024-04-18T11:46:01.642Z,12.49
2024-04-18T11:48:29.781Z,12.43
2024-04-18T11:50:57.920Z,11.85
2024-04-18T11:53:28.620Z,11.85
2024-04-18T11:56:09.555Z,12.02
2024-04-18T11:58:42.213Z,12.04
2024-04-18T12:01:15.560Z,11.92
2024-04-18T12:03:44.171Z,12.29
2024-04-18T12:06:12.319Z,12.24
2024-04-18T12:08:46.310Z,12.32
2024-04-18T12:11:25.092Z,11.97
2024-04-18T12:13:53.970Z,11.48
2024-04-18T12:16:26.605Z,11.46
2024-04-18T12:18:58.551Z,11.77
2024-04-18T12:21:29.515Z,11.92
2024-04-18T12:24:00.314Z,11.90
2024-04-18T12:26:36.566Z,12.24
2024-04-18T12:29:04.789Z,12.68
2024-04-18T12:31:36.003Z,12.61
2024-04-18T12:34:03.964Z,12.28
2024-04-18T12:36:36.080Z,12.07
2024-04-18T12:39:07.448Z,11.76
2024-04-18T12:41:41.017Z,11.59
2024-04-18T12:44:28.910Z,11.19
2024-04-18T12:46:58.089Z,11.17
2024-04-18T12:49:26.334Z,11.15
2024-04-18T12:51:57.476Z,11.22
2024-04-18T12:54:27.827Z,11.33
2024-04-18T12:57:02.031Z,11.41
2024-04-18T12:59:30.541Z,11.31
2024-04-18T13:01:58.787Z,11.47
2024-04-18T13:04:32.768Z,11.12
2024-04-18T13:07:03.730Z,11.24
2024-04-18T13:09:39.493Z,11.56
2024-04-18T13:12:14.513Z,11.36
2024-04-18T13:14:42.987Z,11.56
2024-04-18T13:17:14.353Z,12.02
2024-04-18T13:19:45.330Z,12.10
2024-04-18T13:22:13.497Z,11.89
2024-04-18T13:24:41.600Z,11.69
2024-04-18T13:27:12.320Z,11.58
2024-04-18T13:29:45.366Z,11.34
2024-04-18T13:32:13.885Z,11.38
2024-04-18T13:34:43.274Z,11.70
2024-04-18T13:37:14.247Z,11.70
2024-04-18T13:39:45.840Z,11.43
2024-04-18T13:42:20.053Z,11.53
2024-04-18T13:44:47.891Z,11.37
2024-04-18T13:47:15.777Z,11.31
2024-04-18T13:49:44.437Z,11.42
2024-04-18T13:52:15.824Z,11.43
2024-04-18T13:54:49.552Z,11.63
2024-04-18T13:57:20.433Z,11.56
2024-04-18T13:59:51.051Z,11.62
2024-04-18T14:02:19.202Z,11.29
2024-04-18T14:04:50.758Z,11.29
2024-04-18T14:07:23.702Z,11.37
2024-04-18T14:09:56.375Z,11.28
2024-04-18T14:12:28.036Z,10.95
2024-04-18T14:15:07.623Z,10.99
2024-04-18T14:17:54.381Z,11.46
2024-04-18T14:20:26.059Z,11.57
2024-04-18T14:22:54.013Z,11.64
2024-04-18T14:25:22.902Z,11.54
2024-04-18T14:27:53.618Z,11.57
2024-04-18T14:30:21.612Z,11.39
2024-04-18T14:32:49.558Z,11.30
2024-04-18T14:35:18.075Z,11.37
2024-04-18T14:37:49.341Z,11.36
2024-04-18T14:40:17.603Z,11.45
2024-04-18T14:42:45.883Z,11.53
2024-04-18T14:45:16.464Z,11.74
2024-04-18T14:47:46.928Z,11.70
2024-04-18T14:50:18.746Z,11.32
2024-04-18T14:52:46.933Z,11.35
2024-04-18T14:55:17.550Z,11.21
2024-04-18T14:57:48.086Z,10.99
2024-04-18T15:00:27.317Z,11.00
2024-04-18T15:02:56.270Z,11.00
2024-04-18T15:05:25.206Z,10.83
2024-04-18T15:07:53.279Z,10.87
2024-04-18T15:10:30.367Z,11.00
2024-04-18T15:13:01.371Z,10.83
2024-04-18T15:15:31.876Z,10.69
2024-04-18T15:17:59.912Z,10.79
2024-04-18T15:20:31.455Z,10.80
2024-04-18T15:23:05.234Z,11.03
2024-04-18T15:25:35.829Z,11.14
2024-04-18T15:28:04.376Z,10.88
2024-04-18T15:30:38.013Z,11.08
2024-04-18T15:33:06.819Z,11.19
2024-04-18T15:35:37.556Z,10.77
2024-04-18T15:38:05.939Z,10.77
2024-04-18T15:40:36.722Z,10.73
2024-04-18T15:43:07.359Z,10.85
2024-04-18T15:45:41.354Z,10.97
2024-04-18T15:48:13.440Z,10.76
2024-04-18T15:50:41.759Z,10.66
2024-04-18T15:53:09.806Z,10.55
2024-04-18T15:55:38.059Z,10.51
2024-04-18T15:58:08.856Z,10.31
2024-04-18T16:00:36.878Z,10.51
2024-04-18T16:03:07.672Z,10.65
2024-04-18T16:05:35.448Z,10.78
2024-04-18T16:08:03.418Z,10.65
2024-04-18T16:10:38.039Z,10.63
2024-04-18T16:13:06.088Z,10.61
2024-04-18T16:15:35.290Z,10.53
2024-04-18T16:18:05.690Z,10.44
2024-04-18T16:20:36.662Z,10.60
2024-04-18T16:23:08.013Z,10.59
2024-04-18T16:25:40.491Z,10.49
2024-04-18T16:28:12.467Z,10.36
2024-04-18T16:30:42.683Z,10.43
2024-04-18T16:33:13.591Z,10.29
2024-04-18T16:35:44.708Z,10.34
2024-04-18T16:38:12.651Z,10.32
2024-04-18T16:40:49.680Z,10.17
2024-04-18T16:43:17.983Z,10.22
2024-04-18T16:45:50.061Z,10.20
2024-04-18T16:48:18.258Z,10.30
2024-04-18T16:50:49.747Z,10.20
2024-04-18T16:53:17.718Z,10.14
2024-04-18T16:55:49.615Z,10.32
2024-04-18T16:58:20.007Z,10.22
2024-04-18T17:00:48.288Z,10.14
2024-04-18T17:03:17.250Z,9.99
2024-04-18T17:08:32.302Z,9.95
2024-04-18T17:11:02.957Z,9.93
2024-04-18T17:13:31.219Z,9.94
2024-04-18T17:16:04.110Z,9.99
2024-04-18T17:18:37.921Z,9.92
2024-04-18T17:21:11.541Z,9.84
2024-04-18T17:23:43.187Z,9.94
2024-04-18T17:26:12.543Z,9.86
2024-04-18T17:28:41.638Z,9.77
2024-04-18T17:31:13.467Z,9.79
2024-04-18T17:33:42.431Z,9.71
2024-04-18T17:36:10.537Z,9.77
2024-04-18T17:38:43.362Z,9.76
2024-04-18T17:41:14.323Z,9.68
2024-04-18T17:43:48.261Z,9.70
2024-04-18T17:46:23.675Z,9.62
2024-04-18T17:48:54.416Z,9.54
2024-04-18T17:51:22.896Z,9.49
2024-04-18T17:53:57.932Z,9.61
2024-04-18T17:56:25.782Z,9.64
2024-04-18T17:58:54.010Z,9.67
2024-04-18T18:01:22.144Z,9.61
2024-04-18T18:03:50.056Z,9.65
2024-04-18T18:06:21.580Z,9.59
2024-04-18T18:08:49.726Z,9.64
2024-04-18T18:11:23.686Z,9.58
2024-04-18T18:13:53.810Z,9.52
2024-04-18T18:16:25.190Z,9.45
2024-04-18T18:18:53.614Z,9.48
2024-04-18T18:21:24.885Z,9.44
2024-04-18T18:23:52.594Z,9.41
2024-04-18T18:26:23.381Z,9.41
2024-04-18T18:28:51.611Z,9.26
2024-04-18T18:31:19.184Z,9.41
2024-04-18T18:33:51.969Z,9.20
2024-04-18T18:36:22.621Z,9.35
2024-04-18T18:38:50.049Z,9.31
2024-04-18T18:41:17.997Z,9.12
2024-04-18T18:43:48.531Z,9.09
2024-04-18T18:46:16.347Z,9.18
2024-04-18T18:48:43.963Z,9.20
2024-04-18T18:51:12.781Z,9.17
2024-04-18T18:53:42.150Z,9.17
2024-04-18T18:56:15.931Z,9.09
2024-04-18T18:58:45.031Z,9.04
2024-04-18T19:01:16.028Z,9.11
2024-04-18T19:03:45.030Z,9.10
2024-04-18T19:06:15.327Z,9.10
2024-04-18T19:08:43.059Z,9.19
2024-04-18T19:11:11.108Z,9.11
2024-04-18T19:13:41.862Z,9.09
2024-04-18T19:16:18.041Z,9.09
2024-04-18T19:18:46.293Z,9.15
2024-04-18T19:21:14.339Z,9.13
2024-04-18T19:23:45.654Z,8.98
2024-04-18T19:26:14.224Z,9.05
2024-04-18T19:28:43.041Z,9.02
2024-04-18T19:31:11.840Z,9.06
2024-04-18T19:33:42.343Z,9.08
2024-04-18T19:36:10.706Z,9.05
2024-04-18T19:38:46.676Z,9.14
2024-04-18T19:41:14.610Z,8.99
2024-04-18T19:43:42.556Z,9.07
2024-04-18T19:46:12.903Z,9.09
2024-04-18T19:48:43.711Z,9.10
2024-04-18T19:51:14.315Z,9.06
2024-04-18T19:53:42.748Z,9.04
2024-04-18T19:56:11.602Z,9.07
2024-04-18T19:58:44.450Z,9.04
2024-04-18T20:01:12.604Z,9.08
2024-04-18T20:03:43.734Z,9.09
2024-04-18T20:06:12.049Z,9.10
2024-04-18T20:08:41.862Z,9.06
2024-04-18T20:11:11.435Z,9.10
2024-04-18T20:13:39.105Z,9.12
2024-04-18T20:16:09.419Z,9.05
2024-04-18T20:18:37.476Z,9.18
2024-04-18T20:21:12.830Z,9.15
2024-04-18T20:23:41.091Z,9.09
2024-04-18T20:26:12.492Z,9.05
2024-04-18T20:28:41.838Z,9.06
2024-04-18T20:31:09.725Z,9.05
2024-04-18T20:33:37.757Z,9.13
2024-04-18T20:36:12.417Z,9.11
2024-04-18T20:38:40.515Z,9.17
2024-04-18T20:41:11.874Z,9.21
2024-04-18T20:43:40.632Z,9.22
2024-04-18T20:46:08.171Z,9.13
2024-04-18T20:48:37.963Z,9.03
2024-04-18T20:51:14.200Z,8.99
2024-04-18T20:53:42.376Z,9.08
2024-04-18T20:56:10.898Z,9.10
2024-04-18T20:58:41.794Z,9.13
2024-04-18T21:01:12.161Z,9.10
2024-04-18T21:03:48.002Z,9.04
2024-04-18T21:06:18.593Z,9.08
2024-04-18T21:08:48.827Z,9.03
2024-04-18T21:11:16.882Z,9.04
2024-04-18T21:13:47.584Z,8.88
2024-04-18T21:16:15.660Z,8.98
2024-04-18T21:18:43.658Z,8.96
2024-04-18T21:21:14.277Z,8.89
2024-04-18T21:23:46.835Z,8.87
2024-04-18T21:26:17.723Z,8.77
2024-04-18T21:28:45.664Z,8.65
2024-04-18T21:31:16.068Z,8.73
2024-04-18T21:33:44.531Z,8.71
2024-04-18T21:36:15.585Z,8.75
2024-04-18T21:38:59.760Z,8.72
2024-04-18T21:41:29.214Z,8.89
2024-04-18T21:43:58.175Z,8.86
2024-04-18T21:46:27.901Z,8.76
2024-04-18T21:48:55.741Z,8.86
2024-04-18T21:51:27.703Z,8.80
2024-04-18T21:53:58.653Z,8.83
2024-04-18T21:56:27.027Z,8.78
2024-04-18T21:58:55.000Z,8.67
2024-04-18T22:01:23.177Z,8.56
2024-04-18T22:03:52.057Z,8.21
2024-04-18T22:06:21.155Z,8.11
2024-04-18T22:08:51.371Z,8.10
2024-04-18T22:11:24.899Z,7.98
2024-04-18T22:13:52.755Z,7.99
2024-04-18T22:16:20.771Z,8.05
2024-04-18T22:18:48.421Z,7.99
2024-04-18T22:21:17.783Z,7.94
2024-04-18T22:23:47.339Z,7.86
2024-04-18T22:26:17.047Z,7.80
2024-04-18T22:28:47.727Z,7.86
2024-04-18T22:31:26.544Z,7.84
2024-04-18T22:34:00.472Z,8.00
2024-04-18T22:36:35.498Z,7.94
2024-04-18T22:39:04.117Z,7.91
2024-04-18T22:41:38.371Z,7.96
2024-04-18T22:44:17.741Z,8.02
2024-04-18T22:46:45.579Z,7.98
2024-04-18T22:49:13.473Z,7.92
2024-04-18T22:51:41.666Z,8.04
2024-04-18T22:54:09.366Z,8.04
2024-04-18T22:56:38.588Z,8.04
2024-04-18T22:59:07.038Z,7.93
2024-04-18T23:01:40.287Z,7.99
2024-04-18T23:04:08.421Z,8.05
2024-04-18T23:06:39.069Z,8.07
2024-04-18T23:09:10.656Z,8.02
2024-04-18T23:11:38.866Z,7.97
2024-04-18T23:14:07.152Z,8.07
2024-04-18T23:16:42.716Z,8.09
2024-04-18T23:19:16.221Z,8.07
2024-04-18T23:21:53.819Z,8.10
2024-04-18T23:24:21.608Z,8.10
2024-04-18T23:26:49.905Z,8.12
2024-04-18T23:29:17.346Z,8.08
2024-04-18T23:31:47.826Z,7.97
2024-04-18T23:34:15.949Z,8.03
2024-04-18T23:36:43.607Z,8.02
2024-04-18T23:39:22.956Z,7.95
2024-04-18T23:41:53.917Z,7.84
2024-04-18T23:44:21.922Z,7.91
2024-04-18T23:46:54.158Z,7.94
2024-04-18T23:49:22.203Z,7.79
2024-04-18T23:51:52.840Z,7.79
2024-04-18T23:54:25.334Z,7.72
2024-04-18T23:57:05.482Z,7.82
2024-04-18T23:59:33.540Z,7.73
